Time;durP1;ratioP1;P1;durP2;ratioP2;P2;SDS_P1;SDS_P2;PMS_P1;PMS_P2;Temp;Humidity;BMP_temperature;BMP_pressure;BME280_temperature;BME280_humidity;BME280_pressure;Samples;Min_cycle;Max_cycle;Signal;HPM_P1;HPM_P2
2023/01/19 00:01:53;;;;;;;26.65;15.52;;;;;;;;;;12811237;19;20843;-64
2023/01/19 00:06:11;;;;;;;29.03;15.00;;;;;;;;;;12811309;19;20517;-64
2023/01/19 00:10:28;;;;;;;28.80;15.07;;;;;;;;;;12823915;19;20077;-65
2023/01/19 00:14:46;;;;;;;22.20;12.23;;;;;;;;;;12826535;19;20377;-64
2023/01/19 00:19:03;;;;;;;19.63;10.87;;;;;;;;;;12826504;19;20525;-65
2023/01/19 00:23:21;;;;;;;25.40;13.27;;;;;;;;;;12823697;19;20455;-64
2023/01/19 00:27:39;;;;;;;27.33;14.82;;;;;;;;;;12820829;19;20391;-64
2023/01/19 00:31:56;;;;;;;27.50;12.70;;;;;;;;;;12823348;19;20501;-67
2023/01/19 00:36:15;;;;;;;25.80;14.03;;;;;;;;;;12824011;19;20342;-64
2023/01/19 00:40:33;;;;;;;24.70;13.55;;;;;;;;;;12825209;19;20882;-63
2023/01/19 00:44:51;;;;;;;25.13;12.93;;;;;;;;;;12823180;19;20444;-64
2023/01/19 00:49:09;;;;;;;24.67;12.13;;;;;;;;;;12819019;19;20707;-64
2023/01/19 00:53:31;;;;;;;26.23;14.88;;;;;;;;;;12822235;19;20350;-64
2023/01/19 00:57:49;;;;;;;26.15;13.38;;;;;;;;;;12820722;19;20488;-65
2023/01/19 01:02:07;;;;;;;22.42;11.95;;;;;;;;;;12823676;19;20489;-64
2023/01/19 01:06:25;;;;;;;23.75;12.68;;;;;;;;;;12827823;19;20591;-65
2023/01/19 01:10:42;;;;;;;30.30;15.10;;;;;;;;;;12821620;19;20367;-64
2023/01/19 01:15:00;;;;;;;24.23;12.97;;;;;;;;;;12821306;19;20536;-64
2023/01/19 01:19:18;;;;;;;22.90;11.95;;;;;;;;;;12820083;19;20623;-64
2023/01/19 01:23:35;;;;;;;22.83;12.20;;;;;;;;;;12822962;19;20461;-64
2023/01/19 01:27:54;;;;;;;20.45;11.65;;;;;;;;;;12817584;19;20391;-63
2023/01/19 01:32:15;;;;;;;20.73;11.77;;;;;;;;;;12819928;19;20011;-64
2023/01/19 01:36:32;;;;;;;23.05;11.18;;;;;;;;;;12819729;19;20367;-64
2023/01/19 01:40:50;;;;;;;26.02;12.50;;;;;;;;;;12818447;19;20086;-64
2023/01/19 01:45:29;;;;;;;26.38;14.75;;;;;;;;;;12818507;19;20497;-64
2023/01/19 01:49:50;;;;;;;21.60;12.75;;;;;;;;;;12815561;19;20393;-64
2023/01/19 01:54:18;;;;;;;22.17;10.77;;;;;;;;;;12818383;19;20497;-64
2023/01/19 01:58:37;;;;;;;22.35;11.68;;;;;;;;;;12813180;19;20377;-63
2023/01/19 02:02:55;;;;;;;19.83;11.57;;;;;;;;;;12815591;19;20358;-64
2023/01/19 02:16:36;;;;;;;22.33;12.82;;;;;;;;;;12817890;19;20469;-64
2023/01/19 02:21:21;;;;;;;22.52;11.55;;;;;;;;;;12816891;19;20074;-64
2023/01/19 02:25:39;;;;;;;19.75;9.63;;;;;;;;;;12815796;19;20406;-65
2023/01/19 02:29:58;;;;;;;20.92;11.20;;;;;;;;;;12808432;19;20444;-65
2023/01/19 02:34:19;;;;;;;19.90;10.55;;;;;;;;;;12813996;19;20035;-64
2023/01/19 02:38:38;;;;;;;22.70;9.88;;;;;;;;;;12813145;19;20453;-65
2023/01/19 02:42:59;;;;;;;19.67;9.82;;;;;;;;;;12813354;19;20080;-65
2023/01/19 02:47:18;;;;;;;20.55;10.27;;;;;;;;;;12814371;19;20384;-64
2023/01/19 02:51:36;;;;;;;;;;;;;;;;;;12815478;19;20402;-64
2023/01/19 02:56:17;;;;;;;16.98;9.57;;;;;;;;;;12813792;19;20358;-65
2023/01/19 03:01:14;;;;;;;16.00;9.98;;;;;;;;;;12813332;19;20449;-65
2023/01/19 03:06:00;;;;;;;17.95;8.95;;;;;;;;;;12816529;19;20381;-63
2023/01/19 03:10:51;;;;;;;16.92;8.88;;;;;;;;;;12810820;19;20497;-64
2023/01/19 03:15:36;;;;;;;23.65;9.40;;;;;;;;;;12815282;19;20379;-65
2023/01/19 03:19:54;;;;;;;20.48;10.02;;;;;;;;;;12812039;19;20608;-66
2023/01/19 03:24:14;;;;;;;15.03;8.47;;;;;;;;;;12813695;19;20074;-64
2023/01/19 03:28:35;;;;;;;16.00;8.88;;;;;;;;;;12763110;19;20626;-65
2023/01/19 03:33:06;;;;;;;15.48;8.68;;;;;;;;;;12811112;19;20014;-65
2023/01/19 03:37:25;;;;;;;17.80;9.77;;;;;;;;;;12812680;19;20174;-64
2023/01/19 03:41:47;;;;;;;17.17;9.38;;;;;;;;;;12810351;19;20371;-65
2023/01/19 03:46:06;;;;;;;19.98;10.32;;;;;;;;;;12810446;19;20317;-66
2023/01/19 03:50:27;;;;;;;17.15;8.35;;;;;;;;;;12809082;19;20480;-66
2023/01/19 03:54:45;;;;;;;17.38;8.75;;;;;;;;;;12812122;19;20366;-65
2023/01/19 03:59:04;;;;;;;23.40;10.52;;;;;;;;;;12807981;19;20501;-64
2023/01/19 04:03:22;;;;;;;18.70;10.85;;;;;;;;;;12810965;19;20378;-65
2023/01/19 04:07:40;;;;;;;22.73;11.30;;;;;;;;;;12809678;19;20493;-64
2023/01/19 04:11:57;;;;;;;21.97;12.13;;;;;;;;;;12811789;19;20499;-64
2023/01/19 04:16:18;;;;;;;19.87;11.00;;;;;;;;;;12809512;19;20309;-65
2023/01/19 04:20:36;;;;;;;20.33;10.05;;;;;;;;;;12810586;19;20464;-64
2023/01/19 04:24:54;;;;;;;20.07;10.17;;;;;;;;;;12810235;19;20512;-65
2023/01/19 04:29:13;;;;;;;14.77;7.78;;;;;;;;;;12807777;19;20477;-64
2023/01/19 04:33:31;;;;;;;17.15;9.10;;;;;;;;;;12809270;19;20488;-64
2023/01/19 04:37:49;;;;;;;16.85;9.75;;;;;;;;;;12811470;19;20500;-65
2023/01/19 04:42:06;;;;;;;16.50;10.13;;;;;;;;;;12809178;19;20010;-64
2023/01/19 04:46:24;;;;;;;17.70;9.55;;;;;;;;;;12808613;19;20497;-65
2023/01/19 04:50:41;;;;;;;17.50;9.90;;;;;;;;;;12805125;19;20394;-64
2023/01/19 04:55:04;;;;;;;15.33;9.50;;;;;;;;;;12817181;19;20476;-65
2023/01/19 04:59:22;;;;;;;18.08;9.70;;;;;;;;;;12823007;19;20602;-64
2023/01/19 05:03:40;;;;;;;19.95;9.88;;;;;;;;;;12822763;19;20433;-63
2023/01/19 05:07:57;;;;;;;18.03;9.53;;;;;;;;;;12819537;19;20074;-64
2023/01/19 05:12:15;;;;;;;18.70;10.57;;;;;;;;;;12819417;19;20476;-65
2023/01/19 05:16:33;;;;;;;19.90;10.07;;;;;;;;;;12820961;19;20484;-65
2023/01/19 05:20:51;;;;;;;;;;;;;;;;;;12820668;19;20445;-64
2023/01/19 05:25:08;;;;;;;15.95;8.43;;;;;;;;;;12821723;19;20362;-64
2023/01/19 05:29:26;;;;;;;19.87;9.07;;;;;;;;;;12817540;19;20313;-64
2023/01/19 05:33:44;;;;;;;14.63;8.98;;;;;;;;;;12819771;19;20357;-65
2023/01/19 05:38:01;;;;;;;21.33;10.80;;;;;;;;;;12818866;19;20489;-64
2023/01/19 05:42:19;;;;;;;16.88;9.35;;;;;;;;;;12819211;19;20452;-64
2023/01/19 05:46:38;;;;;;;13.75;8.77;;;;;;;;;;12816609;19;20302;-63
2023/01/19 05:50:58;;;;;;;19.20;9.82;;;;;;;;;;12814221;19;20505;-64
2023/01/19 05:55:15;;;;;;;15.77;8.50;;;;;;;;;;12817060;19;20493;-65
2023/01/19 05:59:33;;;;;;;16.33;8.40;;;;;;;;;;12836568;19;20353;-64
2023/01/19 06:03:51;;;;;;;18.38;8.80;;;;;;;;;;12844211;19;20379;-63
2023/01/19 06:08:09;;;;;;;17.73;9.00;;;;;;;;;;12840380;19;20385;-63
2023/01/19 06:12:27;;;;;;;13.07;7.18;;;;;;;;;;12842029;19;20493;-64
2023/01/19 06:16:44;;;;;;;14.73;8.60;;;;;;;;;;12842119;19;20497;-63
2023/01/19 06:21:06;;;;;;;13.73;7.17;;;;;;;;;;12841668;19;20361;-64
2023/01/19 06:25:24;;;;;;;13.20;7.90;;;;;;;;;;12840122;19;20265;-65
2023/01/19 06:29:42;;;;;;;;;;;;;;;;;;12841012;19;20480;-64
2023/01/19 06:34:00;;;;;;;15.53;7.57;;;;;;;;;;12841672;19;19919;-64
2023/01/19 06:38:18;;;;;;;17.48;7.95;;;;;;;;;;12841643;19;20500;-65
2023/01/19 06:42:36;;;;;;;18.30;9.52;;;;;;;;;;12842450;19;20031;-65
2023/01/19 06:46:53;;;;;;;15.02;8.20;;;;;;;;;;12841559;19;20018;-65
2023/01/19 06:51:31;;;;;;;18.60;8.55;;;;;;;;;;12841674;19;20409;-66
2023/01/19 06:55:49;;;;;;;19.40;9.23;;;;;;;;;;12840116;19;20477;-65
2023/01/19 07:00:08;;;;;;;19.48;10.52;;;;;;;;;;12840140;19;20457;-65
2023/01/19 07:04:25;;;;;;;30.02;15.52;;;;;;;;;;12839631;19;20367;-65
2023/01/19 07:08:43;;;;;;;25.23;14.25;;;;;;;;;;12840107;19;20385;-65
2023/01/19 07:13:01;;;;;;;24.67;14.20;;;;;;;;;;12839696;19;20472;-65
2023/01/19 07:17:19;;;;;;;22.95;13.90;;;;;;;;;;12837771;19;20489;-64
2023/01/19 07:21:36;;;;;;;31.92;16.77;;;;;;;;;;12836880;19;20358;-65
2023/01/19 07:25:54;;;;;;;35.17;17.70;;;;;;;;;;12839331;19;20078;-64
2023/01/19 07:30:14;;;;;;;20.73;12.02;;;;;;;;;;12837685;19;20263;-64
2023/01/19 07:34:33;;;;;;;23.38;12.82;;;;;;;;;;12841215;19;20356;-65
2023/01/19 07:38:50;;;;;;;;;;;;;;;;;;12837914;19;20074;-64
2023/01/19 07:43:08;;;;;;;34.77;18.87;;;;;;;;;;12838143;19;20267;-65
2023/01/19 07:47:26;;;;;;;46.33;22.63;;;;;;;;;;12837587;19;20369;-65
2023/01/19 07:51:43;;;;;;;66.77;28.10;;;;;;;;;;12837552;19;20489;-65
2023/01/19 07:56:01;;;;;;;133.73;45.67;;;;;;;;;;12835953;19;20354;-67
2023/01/19 08:00:23;;;;;;;38.47;17.33;;;;;;;;;;12836866;19;20309;-65
2023/01/19 08:04:42;;;;;;;23.73;12.70;;;;;;;;;;12836466;19;20472;-65
2023/01/19 08:09:00;;;;;;;38.25;18.13;;;;;;;;;;12837203;19;20351;-65
2023/01/19 08:13:17;;;;;;;35.93;18.30;;;;;;;;;;12836261;19;20023;-66
2023/01/19 08:17:36;;;;;;;66.78;25.75;;;;;;;;;;12835983;19;20429;-66
2023/01/19 08:21:55;;;;;;;41.05;21.55;;;;;;;;;;12835967;19;20465;-66
2023/01/19 08:26:34;;;;;;;34.88;17.33;;;;;;;;;;12835484;19;20482;-65
2023/01/19 08:30:54;;;;;;;25.02;13.57;;;;;;;;;;12845729;19;20325;-65
2023/01/19 08:35:12;;;;;;;28.60;14.57;;;;;;;;;;12848534;19;20383;-65
2023/01/19 08:39:29;;;;;;;23.00;13.70;;;;;;;;;;12848686;19;20379;-66
2023/01/19 08:43:48;;;;;;;23.00;12.63;;;;;;;;;;12850022;19;20231;-65
2023/01/19 08:48:06;;;;;;;22.63;12.70;;;;;;;;;;12844441;19;20295;-65
2023/01/19 08:52:25;;;;;;;30.00;15.98;;;;;;;;;;12847937;19;20473;-65
2023/01/19 08:56:42;;;;;;;18.40;10.95;;;;;;;;;;12845920;19;20015;-65
2023/01/19 09:01:00;;;;;;;44.63;18.45;;;;;;;;;;12846432;19;20434;-65
2023/01/19 09:05:20;;;;;;;46.75;18.13;;;;;;;;;;12844480;19;20388;-66
2023/01/19 09:09:42;;;;;;;21.67;11.32;;;;;;;;;;12844502;19;20375;-65
2023/01/19 09:14:00;;;;;;;19.50;10.63;;;;;;;;;;12844540;19;20464;-64
2023/01/19 09:18:20;;;;;;;;;;;;;;;;;;9348640;19;10001021;-65
2023/01/19 09:22:38;;;;;;;28.80;14.57;;;;;;;;;;12844458;19;20271;-65
2023/01/19 09:26:57;;;;;;;21.83;11.45;;;;;;;;;;12844031;19;20501;-65
2023/01/19 09:31:15;;;;;;;22.27;11.73;;;;;;;;;;12842846;19;20058;-66
2023/01/19 09:35:33;;;;;;;24.05;12.27;;;;;;;;;;12843788;19;20418;-66
2023/01/19 09:39:51;;;;;;;25.83;12.38;;;;;;;;;;12843644;19;20444;-66
2023/01/19 09:44:19;;;;;;;20.98;12.48;;;;;;;;;;12840284;19;20545;-65
2023/01/19 09:48:56;;;;;;;20.75;11.15;;;;;;;;;;12842154;19;20469;-64
2023/01/19 09:54:09;;;;;;;21.88;11.13;;;;;;;;;;12844430;19;20474;-65
2023/01/19 09:58:27;;;;;;;19.48;11.05;;;;;;;;;;12840589;19;20380;-65
2023/01/19 10:03:09;;;;;;;31.45;15.07;;;;;;;;;;12842114;19;20493;-66
2023/01/19 10:08:28;;;;;;;50.85;24.65;;;;;;;;;;12841204;19;20035;-67
2023/01/19 10:13:26;;;;;;;44.25;22.92;;;;;;;;;;12836547;19;20007;-65
2023/01/19 10:17:59;;;;;;;46.78;20.77;;;;;;;;;;12841205;19;20464;-65
2023/01/19 10:22:23;;;;;;;34.15;17.52;;;;;;;;;;12839853;19;20545;-66
2023/01/19 10:26:53;;;;;;;23.35;12.50;;;;;;;;;;12841991;19;20436;-65
2023/01/19 10:31:16;;;;;;;21.00;11.75;;;;;;;;;;12840334;19;20445;-66
2023/01/19 10:35:36;;;;;;;20.80;12.10;;;;;;;;;;12841149;19;20011;-66
2023/01/19 10:40:09;;;;;;;21.70;12.93;;;;;;;;;;12840811;19;20426;-67
2023/01/19 10:44:34;;;;;;;22.05;13.02;;;;;;;;;;12840910;19;20326;-65
2023/01/19 10:48:53;;;;;;;23.08;13.00;;;;;;;;;;12838774;19;20426;-65
2023/01/19 10:53:21;;;;;;;21.08;11.48;;;;;;;;;;12835987;19;20335;-67
2023/01/19 10:57:42;;;;;;;28.15;15.13;;;;;;;;;;12839620;19;20500;-66
2023/01/19 11:02:02;;;;;;;24.70;14.18;;;;;;;;;;12838374;19;20372;-65
2023/01/19 11:06:28;;;;;;;23.05;13.27;;;;;;;;;;12839153;19;20361;-65
2023/01/19 11:10:54;;;;;;;28.00;16.85;;;;;;;;;;12838422;19;20467;-66
2023/01/19 11:15:22;;;;;;;29.13;13.85;;;;;;;;;;12836011;19;20334;-66
2023/01/19 11:19:40;;;;;;;24.02;13.27;;;;;;;;;;12836785;19;20011;-65
2023/01/19 11:24:04;;;;;;;22.65;11.90;;;;;;;;;;12836666;19;20128;-67
2023/01/19 11:28:36;;;;;;;25.58;13.10;;;;;;;;;;12836783;19;20083;-66
2023/01/19 11:32:55;;;;;;;24.40;13.27;;;;;;;;;;12839570;19;20372;-66
2023/01/19 11:37:16;;;;;;;23.42;12.88;;;;;;;;;;12836913;19;20283;-66
2023/01/19 11:41:36;;;;;;;32.47;16.05;;;;;;;;;;12837725;19;20473;-66
2023/01/19 11:45:56;;;;;;;24.00;12.35;;;;;;;;;;12837881;19;20375;-66
2023/01/19 11:50:19;;;;;;;21.40;11.82;;;;;;;;;;12836245;19;20358;-66
2023/01/19 11:54:54;;;;;;;21.33;12.00;;;;;;;;;;12836719;19;20513;-66
2023/01/19 11:59:12;;;;;;;29.30;13.75;;;;;;;;;;12834886;19;20424;-67
2023/01/19 12:03:38;;;;;;;24.55;13.15;;;;;;;;;;12843640;19;20380;-67
2023/01/19 12:07:59;;;;;;;26.45;12.27;;;;;;;;;;12849266;19;20351;-66
2023/01/19 12:12:30;;;;;;;33.17;14.77;;;;;;;;;;12847306;19;20493;-67
2023/01/19 12:16:51;;;;;;;18.48;8.57;;;;;;;;;;12846998;19;20014;-66
2023/01/19 12:21:09;;;;;;;18.05;10.23;;;;;;;;;;12846216;19;20390;-66
2023/01/19 12:26:36;;;;;;;16.63;9.48;;;;;;;;;;12848925;19;20518;-65
2023/01/19 12:30:54;;;;;;;15.43;8.83;;;;;;;;;;12845596;19;20468;-65
2023/01/19 12:35:50;;;;;;;;;;;;;;;;;;12847894;19;20461;-67
2023/01/19 12:40:27;;;;;;;15.15;7.22;;;;;;;;;;12846746;19;19978;-66
2023/01/19 12:44:46;;;;;;;15.82;9.20;;;;;;;;;;12847416;19;20504;-65
2023/01/19 12:49:28;;;;;;;18.23;10.73;;;;;;;;;;12844317;19;20015;-66
2023/01/19 12:53:53;;;;;;;15.02;7.38;;;;;;;;;;12844811;19;20498;-66
2023/01/19 12:58:24;;;;;;;15.88;8.50;;;;;;;;;;12844234;19;20006;-66
2023/01/19 13:02:47;;;;;;;19.23;10.25;;;;;;;;;;12844505;19;20351;-67
2023/01/19 13:07:09;;;;;;;13.40;8.07;;;;;;;;;;12845376;19;20437;-66
2023/01/19 13:11:27;;;;;;;14.77;8.68;;;;;;;;;;12844641;19;20354;-65
2023/01/19 13:15:51;;;;;;;9.93;5.78;;;;;;;;;;12843428;19;20010;-65
2023/01/19 13:20:22;;;;;;;13.77;8.02;;;;;;;;;;12845280;19;20461;-66
2023/01/19 13:25:12;;;;;;;15.98;8.82;;;;;;;;;;12844684;19;20007;-66
2023/01/19 13:29:34;;;;;;;13.57;9.13;;;;;;;;;;12841336;19;20482;-66
2023/01/19 13:33:58;;;;;;;18.90;10.07;;;;;;;;;;12842893;19;20354;-68
2023/01/19 13:38:16;;;;;;;13.35;8.88;;;;;;;;;;12842244;19;20347;-67
2023/01/19 13:42:39;;;;;;;17.15;9.88;;;;;;;;;;12842524;19;20028;-67
2023/01/19 13:46:58;;;;;;;19.90;11.40;;;;;;;;;;12844114;19;20643;-66
2023/01/19 13:51:17;;;;;;;20.48;10.93;;;;;;;;;;12841446;19;20375;-66
2023/01/19 13:55:35;;;;;;;17.17;9.95;;;;;;;;;;12842357;19;20383;-67
2023/01/19 14:00:11;;;;;;;22.03;11.40;;;;;;;;;;12843242;19;20015;-67
2023/01/19 14:04:34;;;;;;;21.50;11.70;;;;;;;;;;12842510;19;20476;-66
2023/01/19 14:09:16;;;;;;;20.80;12.15;;;;;;;;;;12841140;19;20440;-66
2023/01/19 14:13:42;;;;;;;18.73;10.57;;;;;;;;;;12843253;19;20326;-66
2023/01/19 14:18:18;;;;;;;21.70;11.85;;;;;;;;;;12841986;19;20015;-67
2023/01/19 14:22:44;;;;;;;19.75;10.93;;;;;;;;;;12841862;19;20489;-68
2023/01/19 14:27:17;;;;;;;19.42;10.35;;;;;;;;;;12839210;19;20348;-66
2023/01/19 14:31:50;;;;;;;19.95;9.70;;;;;;;;;;12840298;19;20330;-67
2023/01/19 14:36:24;;;;;;;19.50;12.55;;;;;;;;;;12841138;19;20350;-67
2023/01/19 14:40:42;;;;;;;20.90;10.82;;;;;;;;;;12841266;19;20497;-67
2023/01/19 14:45:03;;;;;;;22.88;11.82;;;;;;;;;;12840342;19;20465;-66
2023/01/19 14:49:28;;;;;;;34.40;17.70;;;;;;;;;;12839907;19;20497;-66
2023/01/19 14:53:51;;;;;;;49.25;21.75;;;;;;;;;;12838201;19;20010;-66
2023/01/19 14:58:11;;;;;;;43.30;18.80;;;;;;;;;;12837515;19;20379;-66
2023/01/19 15:02:29;;;;;;;30.80;14.73;;;;;;;;;;12839263;19;20599;-66
2023/01/19 15:06:47;;;;;;;24.33;11.38;;;;;;;;;;12837434;19;20441;-66
2023/01/19 15:11:34;;;;;;;20.50;11.95;;;;;;;;;;12838505;19;20444;-68
2023/01/19 15:15:52;;;;;;;20.73;11.70;;;;;;;;;;12837044;19;20604;-66
2023/01/19 15:20:18;;;;;;;24.83;12.38;;;;;;;;;;12836393;19;20448;-66
2023/01/19 15:24:35;;;;;;;22.77;12.68;;;;;;;;;;12838376;19;20359;-66
2023/01/19 15:28:55;;;;;;;26.47;12.90;;;;;;;;;;12838150;19;20433;-66
2023/01/19 15:33:31;;;;;;;26.75;13.20;;;;;;;;;;12835522;19;20600;-67
2023/01/19 15:37:49;;;;;;;33.78;17.50;;;;;;;;;;12836904;19;20493;-65
2023/01/19 15:42:13;;;;;;;;;;;;;;;;;;12837956;19;20297;-66
2023/01/19 15:46:31;;;;;;;31.17;16.27;;;;;;;;;;12837216;19;20385;-65
2023/01/19 15:50:48;;;;;;;34.10;17.50;;;;;;;;;;12834019;19;20365;-66
2023/01/19 15:55:10;;;;;;;45.75;22.83;;;;;;;;;;12835451;19;20776;-67
2023/01/19 15:59:43;;;;;;;46.00;23.03;;;;;;;;;;12832623;19;20039;-66
2023/01/19 16:04:04;;;;;;;43.87;21.87;;;;;;;;;;12835725;19;20431;-68
2023/01/19 16:08:21;;;;;;;51.83;26.27;;;;;;;;;;12837032;19;20342;-66
2023/01/19 16:12:39;;;;;;;26.23;15.13;;;;;;;;;;12835353;19;20449;-67
2023/01/19 16:16:58;;;;;;;27.38;15.35;;;;;;;;;;12835284;19;20636;-67
2023/01/19 16:21:16;;;;;;;26.05;13.75;;;;;;;;;;12833287;19;20417;-66
2023/01/19 16:25:34;;;;;;;33.70;16.65;;;;;;;;;;12834945;19;20482;-67
2023/01/19 16:29:52;;;;;;;34.33;18.50;;;;;;;;;;12834792;19;20019;-67
2023/01/19 16:34:10;;;;;;;28.23;16.00;;;;;;;;;;12833607;19;20489;-66
2023/01/19 16:38:27;;;;;;;35.22;17.80;;;;;;;;;;12833786;19;20006;-67
2023/01/19 16:42:46;;;;;;;32.92;17.77;;;;;;;;;;12834559;19;20326;-66
2023/01/19 16:47:03;;;;;;;37.22;18.70;;;;;;;;;;12833433;19;20064;-67
2023/01/19 16:51:21;;;;;;;31.77;17.00;;;;;;;;;;12843400;19;20043;-66
2023/01/19 16:55:40;;;;;;;36.70;18.83;;;;;;;;;;12845434;19;20363;-67
2023/01/19 16:59:58;;;;;;;35.22;20.52;;;;;;;;;;12845963;19;20084;-66
2023/01/19 17:04:17;;;;;;;28.57;15.67;;;;;;;;;;12845925;19;20394;-67
2023/01/19 17:08:36;;;;;;;31.52;16.65;;;;;;;;;;12843542;19;20323;-67
2023/01/19 17:12:53;;;;;;;35.45;16.55;;;;;;;;;;12845172;19;20457;-67
2023/01/19 17:17:12;;;;;;;33.83;18.17;;;;;;;;;;12844352;19;20489;-67
2023/01/19 17:21:29;;;;;;;38.95;19.70;;;;;;;;;;12844886;19;20513;-67
2023/01/19 17:25:55;;;;;;;39.20;17.55;;;;;;;;;;12844741;19;20516;-67
2023/01/19 17:30:13;;;;;;;42.05;19.10;;;;;;;;;;12842632;19;20492;-67
2023/01/19 17:34:32;;;;;;;45.70;20.95;;;;;;;;;;12844984;19;20303;-67
2023/01/19 17:38:52;;;;;;;37.05;18.40;;;;;;;;;;12844109;19;20437;-66
2023/01/19 17:43:10;;;;;;;37.95;17.88;;;;;;;;;;12339303;19;10001089;-67
2023/01/19 17:47:27;;;;;;;34.33;17.83;;;;;;;;;;12843148;19;20344;-67
2023/01/19 17:51:50;;;;;;;43.40;17.00;;;;;;;;;;12842576;19;20414;-66
2023/01/19 17:56:12;;;;;;;45.10;18.98;;;;;;;;;;12839711;19;20362;-66
2023/01/19 18:00:30;;;;;;;46.80;19.20;;;;;;;;;;12841659;19;20015;-67
2023/01/19 18:04:47;;;;;;;35.40;16.02;;;;;;;;;;12842999;19;20025;-66
2023/01/19 18:09:06;;;;;;;46.93;18.60;;;;;;;;;;12842078;19;20383;-67
2023/01/19 18:13:24;;;;;;;28.88;14.48;;;;;;;;;;12841165;19;20480;-67
2023/01/19 18:17:42;;;;;;;25.52;14.38;;;;;;;;;;12842202;19;20372;-67
2023/01/19 18:22:00;;;;;;;34.05;18.40;;;;;;;;;;12840462;19;20383;-66
2023/01/19 18:26:21;;;;;;;33.58;15.27;;;;;;;;;;12841723;19;20469;-67
2023/01/19 18:30:38;;;;;;;29.38;15.48;;;;;;;;;;12839929;19;20515;-66
2023/01/19 18:34:56;;;;;;;36.95;17.85;;;;;;;;;;12841632;19;20481;-66
2023/01/19 18:39:14;;;;;;;26.58;15.27;;;;;;;;;;12840058;19;20517;-67
2023/01/19 18:43:32;;;;;;;27.75;15.23;;;;;;;;;;12843183;19;20465;-66
2023/01/19 18:47:50;;;;;;;38.22;19.25;;;;;;;;;;12840166;19;20472;-66
2023/01/19 18:52:08;;;;;;;34.17;19.25;;;;;;;;;;12838817;19;20493;-69
2023/01/19 18:56:26;;;;;;;28.15;15.57;;;;;;;;;;12839178;19;20002;-66
2023/01/19 19:00:44;;;;;;;44.25;19.80;;;;;;;;;;12840622;19;20395;-67
2023/01/19 19:05:02;;;;;;;69.05;31.70;;;;;;;;;;12839128;19;20356;-66
2023/01/19 19:09:19;;;;;;;87.63;39.03;;;;;;;;;;12829222;19;20477;-67
2023/01/19 19:13:37;;;;;;;90.67;37.43;;;;;;;;;;12829746;19;20078;-67
2023/01/19 19:17:55;;;;;;;85.38;37.45;;;;;;;;;;12832362;19;20690;-67
2023/01/19 19:22:12;;;;;;;77.93;38.50;;;;;;;;;;12832993;19;20337;-66
2023/01/19 19:26:31;;;;;;;71.15;35.78;;;;;;;;;;12838016;19;20757;-66
2023/01/19 19:30:51;;;;;;;87.18;40.72;;;;;;;;;;12835955;19;20585;-67
2023/01/19 19:35:10;;;;;;;79.57;40.10;;;;;;;;;;12837087;19;20438;-66
2023/01/19 19:39:28;;;;;;;54.70;28.38;;;;;;;;;;12837042;19;20368;-67
2023/01/19 19:43:46;;;;;;;50.67;27.83;;;;;;;;;;12837844;19;20489;-66
2023/01/19 19:48:03;;;;;;;49.17;26.40;;;;;;;;;;12837907;19;20363;-67
2023/01/19 19:52:21;;;;;;;43.00;22.65;;;;;;;;;;12836207;19;20354;-67
2023/01/19 19:56:39;;;;;;;38.72;20.65;;;;;;;;;;12834161;19;20384;-67
2023/01/19 20:00:57;;;;;;;38.65;19.08;;;;;;;;;;12836959;19;20509;-66
2023/01/19 20:05:15;;;;;;;38.92;18.13;;;;;;;;;;12835914;19;20464;-66
2023/01/19 20:09:32;;;;;;;32.07;18.47;;;;;;;;;;12836347;19;20036;-67
2023/01/19 20:13:50;;;;;;;28.85;16.02;;;;;;;;;;12835536;19;20733;-67
2023/01/19 20:18:08;;;;;;;30.88;16.08;;;;;;;;;;12836244;19;20290;-69
2023/01/19 20:22:26;;;;;;;32.17;15.52;;;;;;;;;;12836186;19;20471;-67
2023/01/19 20:26:51;;;;;;;30.70;15.97;;;;;;;;;;12847676;19;20367;-67
2023/01/19 20:31:23;;;;;;;38.60;19.00;;;;;;;;;;12847254;19;20473;-66
2023/01/19 20:35:40;;;;;;;33.72;17.35;;;;;;;;;;12846772;19;20468;-67
2023/01/19 20:39:58;;;;;;;40.55;21.10;;;;;;;;;;12847807;19;20391;-66
2023/01/19 20:44:23;;;;;;;28.40;15.05;;;;;;;;;;12846774;19;20473;-66
2023/01/19 20:48:41;;;;;;;32.25;16.25;;;;;;;;;;12846865;19;20454;-66
2023/01/19 20:52:59;;;;;;;23.05;11.70;;;;;;;;;;12846587;19;20785;-67
2023/01/19 20:57:17;;;;;;;22.65;11.30;;;;;;;;;;12848735;19;20483;-66
2023/01/19 21:01:35;;;;;;;30.73;14.40;;;;;;;;;;12844375;19;20363;-67
2023/01/19 21:05:53;;;;;;;29.90;13.18;;;;;;;;;;12845052;19;20078;-67
2023/01/19 21:10:10;;;;;;;23.90;13.40;;;;;;;;;;12845194;19;20119;-66
2023/01/19 21:14:28;;;;;;;31.02;14.93;;;;;;;;;;12846009;19;20757;-66
2023/01/19 21:18:45;;;;;;;45.43;20.90;;;;;;;;;;12845878;19;20479;-67
2023/01/19 21:23:03;;;;;;;34.27;16.17;;;;;;;;;;12846478;19;20374;-65
2023/01/19 21:27:20;;;;;;;28.97;13.57;;;;;;;;;;12845372;19;20745;-66
2023/01/19 21:31:40;;;;;;;40.70;20.20;;;;;;;;;;12844556;19;20322;-66
2023/01/19 21:35:57;;;;;;;35.22;12.93;;;;;;;;;;12843064;19;20011;-66
2023/01/19 21:40:15;;;;;;;40.88;16.00;;;;;;;;;;12843606;19;20440;-66
2023/01/19 21:44:33;;;;;;;25.48;12.90;;;;;;;;;;12844159;19;20193;-66
2023/01/19 21:48:50;;;;;;;22.73;11.23;;;;;;;;;;12841546;19;20465;-65
2023/01/19 21:53:10;;;;;;;23.25;11.48;;;;;;;;;;12842492;19;20014;-66
2023/01/19 21:57:27;;;;;;;25.27;12.18;;;;;;;;;;12842068;19;20480;-65
2023/01/19 22:01:45;;;;;;;22.65;12.00;;;;;;;;;;12843566;19;20031;-65
2023/01/19 22:06:05;;;;;;;26.67;12.07;;;;;;;;;;12842357;19;20383;-65
2023/01/19 22:10:23;;;;;;;23.80;12.30;;;;;;;;;;12842271;19;20347;-65
2023/01/19 22:14:41;;;;;;;22.73;11.07;;;;;;;;;;12846253;19;20494;-66
2023/01/19 22:19:01;;;;;;;19.20;10.73;;;;;;;;;;12842821;19;20512;-66
2023/01/19 22:23:18;;;;;;;22.25;10.27;;;;;;;;;;12842596;19;20468;-65
2023/01/19 22:27:37;;;;;;;18.25;9.77;;;;;;;;;;12841654;19;20475;-66
2023/01/19 22:31:55;;;;;;;19.30;9.95;;;;;;;;;;12842462;19;20499;-66
2023/01/19 22:36:24;;;;;;;18.58;9.40;;;;;;;;;;12840361;19;20362;-65
2023/01/19 22:40:42;;;;;;;22.63;9.68;;;;;;;;;;12840906;19;20372;-65
2023/01/19 22:45:00;;;;;;;17.48;8.85;;;;;;;;;;12841052;19;20504;-65
2023/01/19 22:49:17;;;;;;;20.83;9.13;;;;;;;;;;12836874;19;20027;-65
2023/01/19 22:53:35;;;;;;;16.13;8.82;;;;;;;;;;12838638;19;20006;-65
2023/01/19 22:57:52;;;;;;;22.43;9.37;;;;;;;;;;12838335;19;20440;-65
2023/01/19 23:02:11;;;;;;;19.67;8.27;;;;;;;;;;12839141;19;20464;-65
2023/01/19 23:06:31;;;;;;;;;;;;;;;;;;12840741;19;20810;-65
2023/01/19 23:10:48;;;;;;;16.60;8.27;;;;;;;;;;12838151;19;20017;-66
2023/01/19 23:15:07;;;;;;;20.20;9.70;;;;;;;;;;12836994;19;20025;-65
2023/01/19 23:19:24;;;;;;;19.05;9.30;;;;;;;;;;12838944;19;20461;-65
2023/01/19 23:23:43;;;;;;;15.93;8.52;;;;;;;;;;12837829;19;20437;-66
2023/01/19 23:28:00;;;;;;;18.88;8.40;;;;;;;;;;12838778;19;20464;-66
2023/01/19 23:32:19;;;;;;;18.58;9.45;;;;;;;;;;12839086;19;20457;-66
2023/01/19 23:36:39;;;;;;;32.05;13.18;;;;;;;;;;12834981;19;20343;-65
2023/01/19 23:40:56;;;;;;;29.58;12.32;;;;;;;;;;12837940;19;20151;-65
2023/01/19 23:45:14;;;;;;;30.30;12.63;;;;;;;;;;12835944;19;20395;-65
2023/01/19 23:49:32;;;;;;;26.23;12.57;;;;;;;;;;12837728;19;20487;-66
2023/01/19 23:53:50;;;;;;;29.05;14.35;;;;;;;;;;12836741;19;20540;-66
2023/01/19 23:58:08;;;;;;;25.80;12.60;;;;;;;;;;12835348;19;20060;-65
